Time;durP1;ratioP1;P1;durP2;ratioP2;P2;SDS_P1;SDS_P2;PMS_P1;PMS_P2;Temp;Humidity;BMP_temperature;BMP_pressure;BME280_temperature;BME280_humidity;BME280_pressure;Samples;Min_cycle;Max_cycle;Signal;HPM_P1;HPM_P2
2022/12/30 00:01:53;;;;;;;13.35;0.75;;;6.20;99.90;;;;;;4998583;28;20030;-94
2022/12/30 00:04:18;;;;;;;9.07;0.90;;;6.20;99.90;;;;;;4982232;28;20034;-94
2022/12/30 00:06:44;;;;;;;17.75;1.45;;;6.20;99.90;;;;;;4989915;28;20030;-95
2022/12/30 00:09:09;;;;;;;9.20;1.00;;;6.20;99.90;;;;;;4987800;28;20073;-95
2022/12/30 00:11:35;;;;;;;4.70;0.80;;;6.20;99.90;;;;;;4985148;28;20053;-95
2022/12/30 00:34:35;;;;;;;8.50;0.80;;;6.00;99.90;;;;;;4998374;28;20049;-95
2022/12/30 00:37:01;;;;;;;12.75;1.10;;;6.00;99.90;;;;;;4991925;28;20038;-94
2022/12/30 00:39:27;;;;;;;10.55;0.95;;;6.00;99.90;;;;;;4972943;28;20027;-95
2022/12/30 00:44:36;;;;;;;8.73;0.90;;;5.90;99.90;;;;;;4997705;28;20073;-95
2022/12/30 00:47:04;;;;;;;6.93;0.60;;;5.90;99.90;;;;;;4981126;28;20022;-92
2022/12/30 00:57:42;;;;;;;8.23;0.80;;;5.80;99.90;;;;;;4986988;28;20098;-95
2022/12/30 01:00:10;;;;;;;9.45;1.20;;;5.80;99.90;;;;;;4981203;28;20078;-95
2022/12/30 01:02:36;;;;;;;10.00;1.02;;;5.80;99.90;;;;;;4980684;28;20030;-93
2022/12/30 01:05:02;;;;;;;8.25;0.50;;;5.80;99.90;;;;;;4980551;28;20058;-94
2022/12/30 01:07:28;;;;;;;8.73;0.68;;;5.80;99.90;;;;;;4981330;28;20493;-94
2022/12/30 01:09:54;;;;;;;12.52;1.05;;;5.80;99.90;;;;;;4980612;28;20068;-95
2022/12/30 01:12:20;;;;;;;6.70;1.65;;;5.80;99.90;;;;;;4986065;28;20030;-94
2022/12/30 01:14:51;;;;;;;9.15;0.77;;;5.80;99.90;;;;;;4989781;28;20619;-95
2022/12/30 01:17:20;;;;;;;6.80;0.80;;;5.80;99.90;;;;;;4976428;28;20483;-94
2022/12/30 01:19:46;;;;;;;11.35;1.05;;;5.80;99.90;;;;;;4992055;28;20030;-95
2022/12/30 01:22:12;;;;;;;10.60;0.70;;;5.70;99.90;;;;;;4985672;28;20034;-95
2022/12/30 01:24:38;;;;;;;10.20;0.55;;;5.80;99.90;;;;;;4973586;28;20591;-94
2022/12/30 01:27:04;;;;;;;10.82;0.70;;;5.70;99.90;;;;;;4995997;28;20034;-94
2022/12/30 01:29:36;;;;;;;7.85;0.80;;;5.70;99.90;;;;;;4978852;28;20138;-95
2022/12/30 01:32:03;;;;;;;7.35;0.63;;;5.60;99.90;;;;;;4983299;28;20030;-95
2022/12/30 01:34:29;;;;;;;11.45;0.93;;;5.60;99.90;;;;;;4974194;28;20035;-95
2022/12/30 01:36:55;;;;;;;8.13;0.70;;;5.60;99.90;;;;;;4982986;28;20041;-95
2022/12/30 01:39:21;;;;;;;12.23;0.88;;;5.50;99.90;;;;;;4993899;28;20463;-94
2022/12/30 01:41:47;;;;;;;12.60;1.00;;;5.50;99.90;;;;;;4984845;28;20023;-94
2022/12/30 01:44:50;;;;;;;8.32;0.82;;;5.50;99.90;;;;;;4980911;28;20058;-92
2022/12/30 01:47:18;;;;;;;6.45;0.65;;;5.40;99.90;;;;;;4979450;28;20177;-93
2022/12/30 01:49:48;;;;;;;11.65;1.77;;;5.40;99.90;;;;;;4979059;28;20050;-94
2022/12/30 01:52:17;;;;;;;14.93;0.80;;;5.40;99.90;;;;;;4997514;28;20023;-94
2022/12/30 01:54:43;;;;;;;13.88;0.80;;;5.30;99.90;;;;;;5012018;28;20037;-94
2022/12/30 01:57:09;;;;;;;9.75;0.90;;;5.30;99.90;;;;;;5009876;28;20468;-94
2022/12/30 01:59:37;;;;;;;9.82;1.00;;;5.30;99.90;;;;;;4983103;28;20036;-94
2022/12/30 02:02:03;;;;;;;9.88;0.90;;;5.30;99.90;;;;;;4982923;28;20180;-93
2022/12/30 02:04:29;;;;;;;10.98;1.27;;;5.30;99.90;;;;;;4983390;28;20065;-94
2022/12/30 02:07:14;;;;;;;9.07;1.00;;;5.30;99.90;;;;;;4979331;28;20031;-94
2022/12/30 02:09:41;;;;;;;17.35;1.00;;;5.30;99.90;;;;;;5001414;28;20353;-94
2022/12/30 02:12:08;;;;;;;10.82;0.95;;;5.30;99.90;;;;;;4997123;28;20121;-94
2022/12/30 02:14:37;;;;;;;10.43;1.67;;;5.30;99.90;;;;;;4986062;28;20126;-94
2022/12/30 02:17:24;;;;;;;17.25;1.23;;;5.30;99.90;;;;;;4992980;28;20011;-94
2022/12/30 02:20:21;;;;;;;10.98;0.82;;;5.30;99.90;;;;;;4991040;28;20023;-95
2022/12/30 02:23:23;;;;;;;13.05;1.00;;;5.30;99.90;;;;;;4989824;28;20093;-95
2022/12/30 02:25:51;;;;;;;11.75;1.65;;;5.40;99.90;;;;;;5012723;28;20467;-94
2022/12/30 02:28:39;;;;;;;13.43;0.70;;;5.40;99.90;;;;;;4998899;28;20136;-95
2022/12/30 02:31:30;;;;;;;9.80;0.85;;;5.40;99.90;;;;;;4982321;28;20075;-93
2022/12/30 02:34:33;;;;;;;13.98;1.05;;;5.40;99.90;;;;;;4982209;28;20034;-94
2022/12/30 02:37:18;;;;;;;13.20;1.30;;;5.40;99.90;;;;;;4994975;28;20090;-93
2022/12/30 02:39:55;;;;;;;10.35;0.93;;;5.40;99.90;;;;;;4978484;28;20062;-94
2022/12/30 02:45:40;;;;;;;13.20;0.90;;;5.40;99.90;;;;;;4980929;28;20129;-93
2022/12/30 02:48:16;;;;;;;10.32;0.95;;;5.30;99.90;;;;;;4978834;28;20034;-94
2022/12/30 02:53:32;;;;;;;12.57;0.95;;;5.30;99.90;;;;;;4998688;28;20053;-93
2022/12/30 02:55:58;;;;;;;12.77;1.45;;;5.30;99.90;;;;;;4981710;28;20026;-93
2022/12/30 02:58:27;;;;;;;12.93;1.25;;;5.30;99.90;;;;;;4979101;28;20546;-92
2022/12/30 03:04:15;;;;;;;9.27;0.80;;;5.30;99.90;;;;;;4979529;28;20037;-94
2022/12/30 03:06:52;;;;;;;14.07;0.75;;;5.30;99.90;;;;;;4967523;28;20117;-94
2022/12/30 03:13:07;;;;;;;8.30;0.73;;;5.30;99.90;;;;;;4980145;28;20069;-94
2022/12/30 03:15:44;;;;;;;8.85;1.17;;;5.20;99.90;;;;;;4961006;28;20113;-93
2022/12/30 03:18:10;;;;;;;6.53;0.75;;;5.20;99.90;;;;;;4977970;28;20492;-93
2022/12/30 03:20:38;;;;;;;13.50;0.70;;;5.20;99.90;;;;;;4975628;28;20129;-93
2022/12/30 03:28:37;;;;;;;16.55;1.45;;;5.10;99.90;;;;;;4993940;28;20041;-94
2022/12/30 03:31:09;;;;;;;13.38;1.33;;;5.10;99.90;;;;;;4994718;28;20038;-94
2022/12/30 03:33:34;;;;;;;8.83;1.10;;;5.00;99.90;;;;;;4981336;28;20104;-93
2022/12/30 03:36:09;;;;;;;11.73;0.90;;;5.00;99.90;;;;;;4994001;28;20670;-94
2022/12/30 03:38:39;;;;;;;8.85;0.85;;;5.00;99.90;;;;;;4977215;28;20029;-94
2022/12/30 03:41:07;;;;;;;11.80;0.95;;;5.00;99.90;;;;;;4978746;28;20019;-93
2022/12/30 03:43:34;;;;;;;9.88;1.20;;;4.90;99.90;;;;;;4977015;28;20482;-94
2022/12/30 03:45:59;;;;;;;16.95;1.23;;;4.90;99.90;;;;;;4963477;28;20027;-93
2022/12/30 03:48:25;;;;;;;9.98;1.45;;;4.80;99.90;;;;;;4980973;28;20113;-94
2022/12/30 03:50:50;;;;;;;16.25;1.42;;;4.70;99.90;;;;;;4978204;28;20569;-94
2022/12/30 03:53:16;;;;;;;17.08;1.38;;;4.70;99.90;;;;;;4993815;28;20049;-93
2022/12/30 03:55:41;;;;;;;13.10;1.60;;;4.70;99.90;;;;;;4964524;28;20023;-94
2022/12/30 03:58:07;;;;;;;8.60;1.52;;;4.70;99.90;;;;;;4979832;28;20034;-94
2022/12/30 04:00:33;;;;;;;10.68;1.10;;;4.60;99.90;;;;;;4995339;28;20078;-93
2022/12/30 04:02:58;;;;;;;8.63;1.02;;;4.50;99.90;;;;;;4984950;28;20031;-94
2022/12/30 04:05:23;;;;;;;17.75;2.20;;;4.50;99.90;;;;;;4998632;28;20035;-94
2022/12/30 04:07:49;;;;;;;22.08;1.45;;;4.50;99.90;;;;;;4979666;28;20066;-94
2022/12/30 04:10:15;;;;;;;10.63;1.00;;;4.40;99.90;;;;;;4977276;28;20043;-95
2022/12/30 04:12:40;;;;;;;15.23;1.45;;;4.40;99.90;;;;;;4983740;28;20065;-94
2022/12/30 04:15:06;;;;;;;12.10;1.40;;;4.40;99.90;;;;;;4983220;28;20074;-94
2022/12/30 04:17:31;;;;;;;12.52;1.10;;;4.40;99.90;;;;;;4980038;28;20026;-94
2022/12/30 04:19:57;;;;;;;9.95;1.30;;;4.40;99.90;;;;;;4980824;28;20038;-94
2022/12/30 04:22:22;;;;;;;7.40;0.88;;;4.40;99.90;;;;;;4995248;28;20109;-96
2022/12/30 04:24:48;;;;;;;9.18;1.45;;;4.30;99.90;;;;;;4976550;28;20645;-94
2022/12/30 04:27:13;;;;;;;12.80;1.00;;;4.40;99.90;;;;;;4976667;28;20044;-94
2022/12/30 04:29:39;;;;;;;15.05;1.35;;;4.30;99.90;;;;;;4978222;28;20090;-95
2022/12/30 04:32:05;;;;;;;13.55;1.33;;;4.40;99.90;;;;;;4981975;28;20400;-93
2022/12/30 04:34:30;;;;;;;13.75;1.48;;;4.40;99.90;;;;;;4990881;28;20030;-95
2022/12/30 04:36:56;;;;;;;12.52;1.17;;;4.30;99.90;;;;;;4986487;28;20501;-94
2022/12/30 04:39:21;;;;;;;17.83;1.70;;;4.30;99.90;;;;;;4976609;28;20037;-93
2022/12/30 04:41:47;;;;;;;14.02;1.30;;;4.30;99.90;;;;;;4978869;28;20049;-96
2022/12/30 04:44:13;;;;;;;16.17;1.13;;;4.30;99.90;;;;;;4991502;28;20042;-94
2022/12/30 04:46:39;;;;;;;9.40;0.70;;;4.30;99.90;;;;;;4979082;28;20030;-92
2022/12/30 04:49:04;;;;;;;19.17;1.83;;;4.30;99.90;;;;;;4980101;28;20105;-93
2022/12/30 04:51:30;;;;;;;13.27;1.75;;;4.30;99.90;;;;;;5002908;28;20022;-92
2022/12/30 04:53:56;;;;;;;10.32;1.23;;;4.30;99.90;;;;;;4981656;28;20026;-92
2022/12/30 04:56:21;;;;;;;15.38;1.30;;;4.40;99.90;;;;;;4986480;28;20077;-92
2022/12/30 04:58:47;;;;;;;17.30;1.13;;;4.30;99.90;;;;;;4991294;28;20026;-93
2022/12/30 05:01:12;;;;;;;8.65;0.73;;;4.40;99.90;;;;;;4974905;28;20514;-92
2022/12/30 05:03:38;;;;;;;10.88;1.23;;;4.40;99.90;;;;;;4985383;28;20035;-92
2022/12/30 05:06:04;;;;;;;10.38;0.82;;;4.40;99.90;;;;;;4975471;28;20085;-92
2022/12/30 05:08:29;;;;;;;14.45;1.23;;;4.30;99.90;;;;;;4976466;28;20086;-93
2022/12/30 05:10:55;;;;;;;12.35;1.10;;;4.30;99.90;;;;;;4980883;28;20130;-93
2022/12/30 05:13:20;;;;;;;13.20;1.10;;;4.40;99.90;;;;;;4994820;28;20026;-92
2022/12/30 05:15:46;;;;;;;13.90;1.17;;;4.40;99.90;;;;;;4976765;28;20533;-92
2022/12/30 05:18:11;;;;;;;11.40;0.93;;;4.30;99.90;;;;;;4990800;28;20495;-92
2022/12/30 05:20:37;;;;;;;16.27;1.83;;;4.30;99.90;;;;;;4977139;28;20026;-93
2022/12/30 05:23:03;;;;;;;10.63;1.15;;;4.40;99.90;;;;;;4974690;28;20018;-92
2022/12/30 05:28:13;;;;;;;15.48;1.52;;;4.30;99.90;;;;;;4978528;28;20498;-94
2022/12/30 05:30:39;;;;;;;8.25;1.13;;;4.40;99.90;;;;;;4993455;28;20031;-93
2022/12/30 05:33:04;;;;;;;11.07;1.45;;;4.40;99.90;;;;;;4991613;28;20050;-93
2022/12/30 05:35:30;;;;;;;15.45;1.23;;;4.30;99.90;;;;;;4972126;28;20080;-93
2022/12/30 05:37:55;;;;;;;15.07;2.40;;;4.40;99.90;;;;;;4967639;28;20059;-93
2022/12/30 05:40:21;;;;;;;11.02;1.88;;;4.40;99.90;;;;;;4975216;28;20122;-93
2022/12/30 05:42:46;;;;;;;10.95;1.50;;;4.40;99.90;;;;;;4975963;28;20027;-95
2022/12/30 05:45:12;;;;;;;9.80;1.55;;;4.50;99.90;;;;;;4971418;28;20486;-94
2022/12/30 05:47:38;;;;;;;17.02;2.15;;;4.50;99.90;;;;;;4980267;28;20027;-94
2022/12/30 05:50:04;;;;;;;12.25;1.25;;;4.50;99.90;;;;;;4979120;28;20086;-95
2022/12/30 05:52:30;;;;;;;10.57;1.83;;;4.50;99.90;;;;;;4989197;28;20030;-96
2022/12/30 05:54:55;;;;;;;10.63;1.58;;;4.50;99.90;;;;;;4975138;28;20030;-94
2022/12/30 05:57:21;;;;;;;20.90;3.25;;;4.50;99.90;;;;;;4960107;28;20011;-95
2022/12/30 05:59:47;;;;;;;9.07;1.13;;;4.60;99.90;;;;;;4985590;28;20033;-95
2022/12/30 06:02:12;;;;;;;14.90;1.90;;;4.60;99.90;;;;;;4960231;28;20052;-95
2022/12/30 06:04:38;;;;;;;13.63;1.38;;;4.60;99.90;;;;;;5007079;28;20054;-95
2022/12/30 06:07:03;;;;;;;15.05;1.42;;;4.60;99.90;;;;;;4973328;28;20034;-95
2022/12/30 06:09:29;;;;;;;12.20;1.10;;;4.60;99.90;;;;;;4989400;28;20034;-93
2022/12/30 06:11:55;;;;;;;16.75;1.33;;;4.50;99.90;;;;;;4977006;28;20134;-94
2022/12/30 06:14:22;;;;;;;12.75;1.05;;;4.50;99.90;;;;;;4977542;28;20058;-94
2022/12/30 06:16:48;;;;;;;10.88;1.10;;;4.60;99.90;;;;;;4980672;28;20034;-94
2022/12/30 06:19:14;;;;;;;10.13;1.08;;;4.60;99.90;;;;;;5001326;28;20165;-95
2022/12/30 06:21:40;;;;;;;13.23;1.20;;;4.60;99.90;;;;;;5006687;28;20041;-94
2022/12/30 06:24:07;;;;;;;14.13;1.48;;;4.60;99.90;;;;;;5000195;28;20035;-95
2022/12/30 06:26:32;;;;;;;13.23;1.27;;;4.60;99.90;;;;;;4979828;28;20027;-94
2022/12/30 06:28:58;;;;;;;18.25;2.10;;;4.60;99.90;;;;;;4984532;28;20041;-94
2022/12/30 06:31:24;;;;;;;14.55;0.80;;;4.60;99.90;;;;;;4960562;28;20020;-94
2022/12/30 06:33:50;;;;;;;13.68;1.02;;;4.60;99.90;;;;;;4976466;28;20085;-96
2022/12/30 06:36:15;;;;;;;18.02;2.15;;;4.50;99.90;;;;;;4991659;28;20038;-94
2022/12/30 06:38:41;;;;;;;10.80;1.25;;;4.50;99.90;;;;;;4983588;28;20035;-93
2022/12/30 06:41:06;;;;;;;16.38;1.85;;;4.60;99.90;;;;;;4999959;28;20126;-94
2022/12/30 06:43:32;;;;;;;14.95;1.25;;;4.50;99.90;;;;;;4983590;28;20029;-96
2022/12/30 06:45:58;;;;;;;13.07;1.20;;;4.60;99.90;;;;;;5009280;28;20015;-94
2022/12/30 06:48:23;;;;;;;7.60;1.13;;;4.60;99.90;;;;;;4987080;28;20038;-94
2022/12/30 06:50:49;;;;;;;11.05;2.03;;;4.60;99.90;;;;;;4979892;28;20110;-95
2022/12/30 06:53:15;;;;;;;14.48;1.48;;;4.60;99.90;;;;;;5014481;28;20478;-94
2022/12/30 06:55:41;;;;;;;9.20;1.20;;;4.70;99.90;;;;;;5031664;28;20030;-94
2022/12/30 06:58:07;;;;;;;14.07;1.45;;;4.70;99.90;;;;;;4987489;28;20035;-96
2022/12/30 07:00:33;;;;;;;12.45;1.23;;;4.70;99.90;;;;;;4982144;28;20058;-95
2022/12/30 07:02:59;;;;;;;14.95;0.93;;;4.70;99.90;;;;;;4986164;28;20384;-95
2022/12/30 07:05:25;;;;;;;15.85;1.50;;;4.80;99.90;;;;;;4993758;28;20038;-94
2022/12/30 07:07:51;;;;;;;16.05;1.65;;;4.70;99.90;;;;;;4993678;28;20004;-94
2022/12/30 07:10:16;;;;;;;10.82;2.28;;;4.70;99.90;;;;;;4997597;28;20042;-94
2022/12/30 07:12:42;;;;;;;10.85;1.10;;;4.70;99.90;;;;;;4983769;28;20026;-94
2022/12/30 07:15:08;;;;;;;14.32;1.80;;;4.70;99.90;;;;;;4980205;28;20086;-93
2022/12/30 07:17:34;;;;;;;14.07;1.77;;;4.80;99.90;;;;;;4979458;28;20121;-93
2022/12/30 07:19:59;;;;;;;13.25;2.33;;;4.70;99.90;;;;;;4980145;28;20057;-94
2022/12/30 07:22:25;;;;;;;23.92;2.35;;;4.70;99.90;;;;;;5001503;28;20030;-93
2022/12/30 07:24:50;;;;;;;16.75;1.42;;;4.80;99.90;;;;;;5016602;28;20041;-95
2022/12/30 07:27:16;;;;;;;13.73;1.63;;;4.80;99.90;;;;;;4984307;28;20130;-94
2022/12/30 07:29:43;;;;;;;14.38;2.60;;;4.70;99.90;;;;;;4999382;28;20030;-95
2022/12/30 07:32:10;;;;;;;20.20;2.28;;;4.70;99.90;;;;;;4997532;28;20034;-94
2022/12/30 07:34:38;;;;;;;11.63;1.45;;;4.70;99.90;;;;;;4979317;28;20035;-94
2022/12/30 07:37:04;;;;;;;12.23;1.70;;;4.70;99.90;;;;;;4977583;28;20038;-94
2022/12/30 07:39:30;;;;;;;17.23;2.17;;;4.70;99.90;;;;;;4979454;28;20058;-93
2022/12/30 07:41:56;;;;;;;13.27;2.35;;;4.60;99.90;;;;;;4987849;28;20498;-93
2022/12/30 07:44:22;;;;;;;13.00;1.80;;;4.70;99.90;;;;;;5011270;28;20037;-94
2022/12/30 07:46:48;;;;;;;7.78;1.63;;;4.60;99.90;;;;;;4978704;28;20031;-93
2022/12/30 07:49:14;;;;;;;12.95;1.30;;;4.60;99.90;;;;;;4969553;28;20046;-93
2022/12/30 07:51:39;;;;;;;9.25;1.55;;;4.60;99.90;;;;;;4978729;28;20026;-95
2022/12/30 07:54:05;;;;;;;15.30;3.20;;;4.60;99.90;;;;;;4973517;28;20046;-94
2022/12/30 07:56:30;;;;;;;12.73;1.92;;;4.60;99.90;;;;;;4980384;28;20027;-93
2022/12/30 07:58:58;;;;;;;8.32;1.52;;;4.70;99.90;;;;;;4957541;28;20027;-93
2022/12/30 08:01:24;;;;;;;18.02;2.97;;;4.70;99.90;;;;;;4994667;28;20029;-94
2022/12/30 08:03:50;;;;;;;10.48;2.22;;;4.70;99.90;;;;;;4982950;28;20030;-94
2022/12/30 08:06:17;;;;;;;9.65;1.70;;;4.80;99.90;;;;;;4986594;28;20043;-96
2022/12/30 08:08:44;;;;;;;11.02;1.52;;;4.80;99.90;;;;;;4956734;28;20030;-94
2022/12/30 08:11:10;;;;;;;17.65;2.33;;;4.80;99.90;;;;;;4974656;28;20038;-96
2022/12/30 08:13:38;;;;;;;12.23;1.52;;;4.90;99.90;;;;;;4983485;28;20026;-95
2022/12/30 08:16:09;;;;;;;13.68;1.80;;;5.00;99.90;;;;;;4976292;28;20131;-94
2022/12/30 08:18:34;;;;;;;15.15;1.60;;;5.00;99.90;;;;;;4974650;28;20019;-94
2022/12/30 08:21:06;;;;;;;9.10;1.58;;;5.00;99.90;;;;;;4959377;28;20126;-94
2022/12/30 08:23:32;;;;;;;10.25;1.98;;;5.10;99.90;;;;;;4978855;28;20157;-95
2022/12/30 08:26:10;;;;;;;13.65;1.50;;;5.10;99.90;;;;;;4989605;28;20078;-93
2022/12/30 08:28:36;;;;;;;12.80;1.85;;;5.20;99.90;;;;;;5012700;28;20041;-95
2022/12/30 08:31:11;;;;;;;8.88;1.38;;;5.20;99.90;;;;;;4974211;28;20030;-94
2022/12/30 08:33:37;;;;;;;10.10;0.95;;;5.30;99.90;;;;;;4990559;28;20423;-94
2022/12/30 08:36:04;;;;;;;8.65;2.28;;;5.30;99.90;;;;;;4993673;28;20037;-94
2022/12/30 08:38:32;;;;;;;11.15;1.10;;;5.40;99.90;;;;;;4995266;28;20051;-94
2022/12/30 08:41:06;;;;;;;13.60;1.65;;;5.40;99.90;;;;;;4994035;28;20082;-94
2022/12/30 08:43:32;;;;;;;5.63;1.30;;;5.50;99.90;;;;;;4993568;28;20097;-94
2022/12/30 08:45:58;;;;;;;12.75;1.70;;;5.50;99.90;;;;;;4981628;28;20027;-95
2022/12/30 08:48:24;;;;;;;5.45;0.93;;;5.60;99.90;;;;;;5009584;28;20041;-94
2022/12/30 08:50:50;;;;;;;8.75;1.88;;;5.60;99.90;;;;;;4989510;28;20185;-93
2022/12/30 08:53:15;;;;;;;11.27;1.40;;;5.70;99.90;;;;;;4960643;28;20491;-95
2022/12/30 08:55:41;;;;;;;7.30;1.65;;;5.80;99.90;;;;;;4996425;28;20114;-94
2022/12/30 08:58:07;;;;;;;10.32;1.50;;;5.80;99.90;;;;;;4970111;28;20073;-96
2022/12/30 09:00:32;;;;;;;8.60;1.95;;;5.90;99.90;;;;;;4982024;28;20029;-95
2022/12/30 09:02:58;;;;;;;7.22;1.38;;;5.90;99.90;;;;;;4975890;28;20054;-94
2022/12/30 09:05:23;;;;;;;9.05;1.80;;;6.00;99.90;;;;;;4990082;28;20026;-96
2022/12/30 09:07:49;;;;;;;5.28;1.27;;;6.00;99.90;;;;;;4977444;28;20054;-96
2022/12/30 09:10:14;;;;;;;8.50;1.33;;;6.10;99.90;;;;;;4988940;28;20043;-94
2022/12/30 09:12:40;;;;;;;8.55;1.38;;;6.10;99.90;;;;;;5003447;28;20038;-94
2022/12/30 09:15:06;;;;;;;11.40;1.23;;;6.20;99.90;;;;;;4979368;28;20482;-95
2022/12/30 09:17:32;;;;;;;11.23;1.75;;;6.20;99.90;;;;;;4974402;28;20077;-94
2022/12/30 09:19:58;;;;;;;11.80;1.40;;;6.30;99.90;;;;;;5007720;28;20113;-93
2022/12/30 09:22:24;;;;;;;7.45;1.13;;;6.30;99.90;;;;;;4979298;28;20007;-94
2022/12/30 09:24:49;;;;;;;6.30;0.80;;;6.40;99.90;;;;;;4971923;28;20034;-95
2022/12/30 09:27:15;;;;;;;10.25;1.42;;;6.40;99.90;;;;;;4964485;28;20051;-95
2022/12/30 09:29:40;;;;;;;11.30;1.48;;;6.40;99.90;;;;;;4985555;28;20039;-95
2022/12/30 09:32:06;;;;;;;6.43;0.80;;;6.50;99.90;;;;;;4991432;28;20030;-95
2022/12/30 09:34:31;;;;;;;7.47;1.08;;;6.50;99.90;;;;;;4975580;28;20090;-94
2022/12/30 09:36:57;;;;;;;7.95;1.00;;;6.60;99.90;;;;;;4992385;28;20047;-94
2022/12/30 09:39:30;;;;;;;7.13;0.85;;;6.60;99.90;;;;;;4976059;28;20058;-94
2022/12/30 09:45:19;;;;;;;5.13;1.13;;;6.80;99.90;;;;;;4974473;28;20083;-94
2022/12/30 09:47:53;;;;;;;7.50;0.70;;;6.90;99.90;;;;;;5007927;28;20094;-95
2022/12/30 09:50:28;;;;;;;9.10;1.15;;;6.90;99.90;;;;;;4975261;28;20051;-94
2022/12/30 09:53:03;;;;;;;3.22;0.60;;;7.00;99.90;;;;;;4997333;28;20026;-93
2022/12/30 09:55:34;;;;;;;4.20;0.50;;;7.00;99.90;;;;;;4978148;28;20058;-95
2022/12/30 09:58:04;;;;;;;4.93;0.70;;;7.10;99.90;;;;;;5004123;28;20030;-95
2022/12/30 10:00:34;;;;;;;11.15;0.70;;;7.20;99.90;;;;;;4986123;28;20026;-96
2022/12/30 10:03:21;;;;;;;6.18;0.70;;;7.20;99.90;;;;;;4982872;28;20106;-95
2022/12/30 10:05:58;;;;;;;7.60;1.67;;;7.30;99.90;;;;;;5009004;28;20023;-96
2022/12/30 10:08:36;;;;;;;6.47;0.80;;;7.30;99.90;;;;;;4996485;28;20031;-95
2022/12/30 10:11:14;;;;;;;4.25;0.90;;;7.40;99.90;;;;;;4982899;28;20015;-96
2022/12/30 10:14:06;;;;;;;5.05;0.88;;;7.40;99.90;;;;;;4996109;28;20073;-95
2022/12/30 10:17:05;;;;;;;9.57;0.70;;;7.40;99.90;;;;;;4983003;28;20030;-94
2022/12/30 10:19:52;;;;;;;7.57;0.95;;;7.40;99.90;;;;;;4984010;28;20038;-95
2022/12/30 10:22:32;;;;;;;4.15;0.50;;;7.40;99.90;;;;;;4980897;28;20499;-95
2022/12/30 10:25:07;;;;;;;4.60;0.70;;;7.40;99.90;;;;;;5016182;28;20077;-94
2022/12/30 10:27:44;;;;;;;7.18;0.63;;;7.50;99.90;;;;;;4987559;28;20125;-96
2022/12/30 10:30:21;;;;;;;4.88;0.70;;;7.50;99.90;;;;;;4978442;28;20042;-94
2022/12/30 10:32:56;;;;;;;4.13;0.70;;;7.50;99.90;;;;;;4982443;28;20027;-94
2022/12/30 10:35:28;;;;;;;6.32;0.80;;;7.50;99.90;;;;;;4980478;28;20030;-95
2022/12/30 10:38:13;;;;;;;6.53;0.55;;;7.50;99.90;;;;;;5010066;28;20022;-94
2022/12/30 10:41:08;;;;;;;8.57;1.13;;;7.60;99.90;;;;;;4998127;28;20031;-94
2022/12/30 10:43:55;;;;;;;4.03;0.50;;;7.60;99.90;;;;;;4996714;28;20027;-93
2022/12/30 10:46:46;;;;;;;6.53;0.65;;;7.70;99.90;;;;;;5014466;28;20061;-94
2022/12/30 10:49:49;;;;;;;6.03;0.50;;;7.80;99.90;;;;;;4990036;28;20058;-94
2022/12/30 10:52:19;;;;;;;3.85;0.40;;;7.80;99.90;;;;;;4975232;28;20488;-93
2022/12/30 10:54:46;;;;;;;4.13;0.55;;;7.90;99.90;;;;;;5013309;28;20030;-94
2022/12/30 10:57:18;;;;;;;3.65;0.60;;;7.90;99.90;;;;;;4991562;28;20017;-93
2022/12/30 10:59:46;;;;;;;5.07;0.50;;;8.00;99.90;;;;;;4993788;28;20054;-94
2022/12/30 11:02:25;;;;;;;5.15;0.47;;;8.00;99.90;;;;;;4988827;28;20376;-94
2022/12/30 11:04:50;;;;;;;5.10;0.50;;;8.10;99.90;;;;;;5000712;28;20031;-94
2022/12/30 11:07:16;;;;;;;3.47;0.40;;;8.10;99.90;;;;;;4984860;28;20237;-94
2022/12/30 11:09:45;;;;;;;4.57;0.30;;;8.20;99.90;;;;;;4997818;28;20063;-95
2022/12/30 11:15:19;;;;;;;5.03;0.40;;;8.20;99.90;;;;;;4987582;28;20430;-95
2022/12/30 11:17:54;;;;;;;4.25;0.60;;;8.30;99.90;;;;;;4963453;28;20031;-94
2022/12/30 11:20:38;;;;;;;9.77;0.60;;;8.30;99.90;;;;;;5002303;28;20101;-95
2022/12/30 11:23:21;;;;;;;4.82;0.40;;;8.30;99.90;;;;;;4997869;28;20086;-95
2022/12/30 11:25:47;;;;;;;6.53;0.47;;;8.40;99.90;;;;;;4956520;28;20026;-93
2022/12/30 11:28:20;;;;;;;4.22;0.50;;;8.40;99.90;;;;;;4987046;28;20058;-94
2022/12/30 11:30:51;;;;;;;;;;;8.40;99.90;;;;;;5006843;28;20062;-95
2022/12/30 11:33:26;;;;;;;5.85;0.75;;;8.40;99.90;;;;;;5009329;28;20119;-95
2022/12/30 11:35:51;;;;;;;7.07;0.40;;;8.40;99.90;;;;;;4993450;28;20030;-95
2022/12/30 11:38:34;;;;;;;8.80;0.50;;;8.50;99.90;;;;;;4977204;28;20043;-95
2022/12/30 11:41:18;;;;;;;3.80;0.30;;;8.50;99.90;;;;;;4979342;28;20034;-95
2022/12/30 11:43:51;;;;;;;3.50;0.30;;;8.50;99.90;;;;;;5016599;28;20042;-95
2022/12/30 11:46:23;;;;;;;3.58;0.32;;;8.50;99.90;;;;;;4997670;28;20035;-95
2022/12/30 11:49:01;;;;;;;5.03;0.50;;;8.50;99.90;;;;;;5005385;28;20031;-96
2022/12/30 11:51:33;;;;;;;7.18;0.55;;;8.50;99.90;;;;;;4993542;28;20027;-96
2022/12/30 11:54:13;;;;;;;8.10;0.40;;;8.50;99.90;;;;;;4998093;28;20023;-96
2022/12/30 11:56:58;;;;;;;5.40;0.50;;;8.60;99.90;;;;;;4987264;28;20049;-94
2022/12/30 11:59:36;;;;;;;4.75;0.40;;;8.60;99.90;;;;;;4991781;28;20034;-94
2022/12/30 12:02:23;;;;;;;7.35;0.50;;;8.60;99.90;;;;;;4980437;28;20023;-94
2022/12/30 12:04:49;;;;;;;5.82;0.50;;;8.60;99.90;;;;;;4976286;28;20616;-93
2022/12/30 12:07:25;;;;;;;3.20;0.30;;;8.60;99.90;;;;;;4981978;28;20089;-93
2022/12/30 12:10:05;;;;;;;4.80;0.70;;;8.60;99.90;;;;;;5009624;28;20045;-95
2022/12/30 12:12:38;;;;;;;9.90;1.27;;;8.60;99.90;;;;;;4997789;28;20026;-95
2022/12/30 12:15:06;;;;;;;8.70;0.60;;;8.60;99.90;;;;;;4977079;28;20031;-95
2022/12/30 12:18:03;;;;;;;9.98;0.88;;;8.70;99.90;;;;;;4989421;28;20019;-94
2022/12/30 12:20:40;;;;;;;9.60;0.70;;;8.70;99.90;;;;;;4982835;28;20030;-94
2022/12/30 12:23:45;;;;;;;7.32;0.50;;;8.70;99.90;;;;;;4944778;28;20125;-95
2022/12/30 12:26:18;;;;;;;6.57;0.38;;;8.80;99.90;;;;;;5003199;28;20106;-95
2022/12/30 12:28:44;;;;;;;;;;;8.80;99.90;;;;;;4985226;28;20018;-93
2022/12/30 12:31:21;;;;;;;8.48;0.77;;;8.80;99.90;;;;;;4993487;28;19924;-94
2022/12/30 12:34:05;;;;;;;4.85;0.40;;;8.80;99.90;;;;;;4981545;28;20018;-94
2022/12/30 12:36:52;;;;;;;7.90;0.40;;;8.90;99.90;;;;;;4981175;28;20022;-93
2022/12/30 12:40:07;;;;;;;6.03;0.40;;;8.90;99.90;;;;;;4980166;28;20041;-93
2022/12/30 12:43:01;;;;;;;8.88;0.40;;;9.00;99.90;;;;;;4964048;28;20041;-93
2022/12/30 12:45:34;;;;;;;5.57;0.40;;;9.00;99.90;;;;;;4977428;28;20039;-94
2022/12/30 12:48:18;;;;;;;6.40;0.52;;;9.00;99.90;;;;;;4981746;28;20062;-95
2022/12/30 12:51:17;;;;;;;3.72;0.38;;;9.00;99.90;;;;;;4977678;28;20059;-94
2022/12/30 12:54:07;;;;;;;5.97;0.40;;;9.00;99.90;;;;;;5011476;28;20007;-94
2022/12/30 12:57:04;;;;;;;4.50;0.30;;;9.10;99.90;;;;;;4983994;28;20050;-96
2022/12/30 13:00:09;;;;;;;8.88;0.30;;;9.00;99.90;;;;;;4983683;28;20035;-96
2022/12/30 13:03:06;;;;;;;8.68;0.38;;;9.00;99.90;;;;;;4978920;28;20031;-96
2022/12/30 13:05:49;;;;;;;6.82;0.50;;;9.00;99.90;;;;;;5007721;28;20031;-96
2022/12/30 13:08:51;;;;;;;9.15;0.60;;;8.90;99.90;;;;;;4995333;28;20102;-96
2022/12/30 13:11:39;;;;;;;5.60;0.40;;;8.90;99.90;;;;;;4993947;28;20030;-94
2022/12/30 13:14:37;;;;;;;5.13;0.32;;;8.90;99.90;;;;;;4994102;28;20031;-95
2022/12/30 13:17:10;;;;;;;5.00;0.50;;;8.80;99.90;;;;;;4988463;28;20030;-95
2022/12/30 13:19:37;;;;;;;4.63;0.40;;;8.80;99.90;;;;;;4984502;28;20034;-94
2022/12/30 13:22:14;;;;;;;3.00;0.45;;;8.80;99.90;;;;;;4981726;28;20039;-95
2022/12/30 13:24:44;;;;;;;9.13;0.45;;;8.80;99.90;;;;;;4983328;28;20066;-94
2022/12/30 13:27:24;;;;;;;8.30;1.02;;;8.70;99.90;;;;;;4990620;28;20034;-95
2022/12/30 13:29:51;;;;;;;4.60;0.43;;;8.70;99.90;;;;;;4987465;28;20042;-96
2022/12/30 13:32:50;;;;;;;6.82;0.95;;;8.70;99.90;;;;;;4994435;28;20023;-94
2022/12/30 13:36:03;;;;;;;4.32;0.35;;;8.60;99.90;;;;;;5013404;28;20045;-94
2022/12/30 13:38:37;;;;;;;9.43;0.73;;;8.60;99.90;;;;;;5001034;28;20027;-96
2022/12/30 13:41:14;;;;;;;4.55;0.40;;;8.60;99.90;;;;;;5026054;28;20054;-95
2022/12/30 13:43:43;;;;;;;10.35;0.82;;;8.60;99.90;;;;;;4990219;28;20035;-95
2022/12/30 13:46:17;;;;;;;7.10;0.70;;;8.60;99.90;;;;;;4996717;28;20095;-96
2022/12/30 13:49:08;;;;;;;8.15;0.60;;;8.60;99.90;;;;;;5011782;28;20031;-96
2022/12/30 13:51:34;;;;;;;3.95;0.40;;;8.60;99.90;;;;;;5011968;28;20109;-94
2022/12/30 13:54:09;;;;;;;4.22;0.32;;;8.60;99.90;;;;;;4964419;28;20031;-94
2022/12/30 13:56:41;;;;;;;4.20;0.45;;;8.60;99.90;;;;;;5006529;28;20019;-96
2022/12/30 13:59:37;;;;;;;3.25;0.43;;;8.60;99.90;;;;;;4994225;28;20025;-95
2022/12/30 14:02:22;;;;;;;5.25;0.55;;;8.50;99.90;;;;;;4982257;28;20141;-94
2022/12/30 14:04:57;;;;;;;2.33;0.30;;;8.60;99.90;;;;;;5016081;28;20026;-95
2022/12/30 14:07:43;;;;;;;2.95;0.32;;;8.50;99.90;;;;;;5013415;28;20027;-95
2022/12/30 14:10:15;;;;;;;6.60;1.02;;;8.50;99.90;;;;;;4999101;28;20092;-96
2022/12/30 14:12:42;;;;;;;4.77;0.40;;;8.50;99.90;;;;;;4998737;28;20061;-95
2022/12/30 14:15:45;;;;;;;5.82;0.40;;;8.40;99.90;;;;;;5003599;28;20040;-95